Time;durP1;ratioP1;P1;durP2;ratioP2;P2;SDS_P1;SDS_P2;PMS_P1;PMS_P2;Temp;Humidity;BMP_temperature;BMP_pressure;BME280_temperature;BME280_humidity;BME280_pressure;Samples;Min_cycle;Max_cycle;Signal;HPM_P1;HPM_P2
2023/10/15 00:00:24;;;;;;;2.53;0.80;;;8.80;99.90;8.80;100416.00;;;;5002014;27;93100;-68
2023/10/15 00:02:51;;;;;;;1.13;0.70;;;8.80;99.90;8.80;100409.00;;;;5002355;27;92861;-68
2023/10/15 00:05:22;;;;;;;0.87;0.80;;;8.80;99.90;8.80;100409.00;;;;4999814;27;94177;-67
2023/10/15 00:07:51;;;;;;;1.20;0.97;;;8.90;99.90;8.80;100412.00;;;;5000992;27;93700;-68
2023/10/15 00:10:22;;;;;;;1.20;0.97;;;8.80;99.90;8.80;100409.00;;;;4986196;27;93108;-68
2023/10/15 00:12:50;;;;;;;1.43;1.13;;;8.90;99.90;8.80;100417.00;;;;4989011;27;92958;-68
2023/10/15 00:15:23;;;;;;;4.93;0.90;;;8.90;99.90;8.80;100407.00;;;;5002806;27;93348;-68
2023/10/15 00:17:51;;;;;;;0.70;0.67;;;8.90;99.90;8.80;100401.00;;;;5006748;27;92898;-69
2023/10/15 00:20:19;;;;;;;1.80;0.50;;;8.90;99.90;8.80;100399.00;;;;4984728;27;92799;-67
2023/10/15 00:22:51;;;;;;;0.87;0.30;;;8.90;99.90;8.80;100411.00;;;;4989237;27;92063;-67
2023/10/15 00:25:19;;;;;;;0.83;0.83;;;8.90;99.90;8.80;100403.00;;;;4988882;27;93493;-68
2023/10/15 00:27:54;;;;;;;0.40;0.40;;;8.90;99.90;8.80;100402.00;;;;5004307;27;93565;-68
2023/10/15 00:30:21;;;;;;;1.73;0.40;;;8.90;99.90;8.80;100397.00;;;;5005496;27;93971;-67
2023/10/15 00:32:52;;;;;;;3.93;0.87;;;8.90;99.90;8.70;100399.00;;;;4955684;27;93143;-67
2023/10/15 00:35:25;;;;;;;0.63;0.53;;;8.80;99.90;8.60;100407.00;;;;5003801;27;93608;-68
2023/10/15 00:37:54;;;;;;;1.90;0.90;;;8.80;99.90;8.50;100407.00;;;;5002870;27;93186;-68
2023/10/15 00:40:21;;;;;;;0.60;0.43;;;8.70;99.90;8.50;100400.00;;;;5001337;27;92955;-68
2023/10/15 00:42:48;;;;;;;4.37;0.50;;;8.70;99.90;8.40;100394.00;;;;4988327;27;92959;-68
2023/10/15 00:45:17;;;;;;;1.60;0.60;;;8.50;99.90;8.30;100403.00;;;;5003425;27;93213;-67
2023/10/15 00:47:51;;;;;;;2.80;0.83;;;8.50;99.90;8.30;100395.00;;;;5005497;27;94289;-67
2023/10/15 00:50:17;;;;;;;0.60;0.60;;;8.40;99.90;8.20;100395.00;;;;5003589;27;93158;-67
2023/10/15 00:52:44;;;;;;;1.27;0.47;;;8.30;99.90;8.10;100397.00;;;;4991264;27;95756;-68
2023/10/15 00:55:22;;;;;;;2.53;0.83;;;8.30;99.90;8.10;100403.00;;;;4981028;27;94216;-67
2023/10/15 00:57:55;;;;;;;0.87;0.70;;;8.20;99.90;8.10;100400.00;;;;4986955;27;93767;-68
2023/10/15 01:00:47;;;;;;;2.17;0.97;;;8.20;99.90;8.00;100404.00;;;;5002515;27;92955;-68
2023/10/15 01:03:13;;;;;;;1.00;0.40;;;8.20;99.90;8.00;100408.00;;;;4994958;27;92878;-68
2023/10/15 01:05:52;;;;;;;0.37;0.37;;;8.10;99.90;8.00;100405.00;;;;4993829;27;92902;-67
2023/10/15 01:08:24;;;;;;;2.37;0.77;;;8.10;99.90;7.90;100409.00;;;;4982477;27;94924;-67
2023/10/15 01:11:08;;;;;;;0.57;0.50;;;8.00;99.90;7.80;100403.00;;;;5005051;27;93656;-67
2023/10/15 01:13:35;;;;;;;0.80;0.50;;;8.00;99.90;7.80;100408.00;;;;5005944;27;92063;-68
2023/10/15 01:16:04;;;;;;;0.60;0.60;;;8.00;99.90;7.80;100403.00;;;;5001207;27;93820;-67
2023/10/15 01:18:30;;;;;;;1.87;1.17;;;7.90;99.90;7.70;100401.00;;;;5006234;27;93659;-68
2023/10/15 01:21:01;;;;;;;0.67;0.50;;;7.90;99.90;7.70;100407.00;;;;5007650;27;93823;-66
2023/10/15 01:23:31;;;;;;;0.67;0.40;;;7.80;99.90;7.70;100406.00;;;;5003490;27;92940;-66
2023/10/15 01:25:59;;;;;;;0.87;0.80;;;7.80;99.90;7.70;100401.00;;;;5003517;27;94477;-67
2023/10/15 01:28:36;;;;;;;0.87;0.70;;;7.80;99.90;7.80;100396.00;;;;5002358;27;92759;-65
2023/10/15 01:31:06;;;;;;;1.90;0.67;;;7.80;99.90;7.70;100394.00;;;;4988547;27;94978;-65
2023/10/15 01:33:47;;;;;;;0.67;0.47;;;7.80;99.90;7.70;100399.00;;;;5006238;27;92903;-65
2023/10/15 01:36:27;;;;;;;4.87;0.80;;;7.80;99.90;7.70;100396.00;;;;5003692;27;92985;-65
2023/10/15 01:38:58;;;;;;;0.97;0.40;;;7.80;99.90;7.70;100401.00;;;;5006926;27;92550;-65
2023/10/15 01:41:25;;;;;;;2.23;0.67;;;7.80;99.90;7.70;100402.00;;;;5001721;27;93497;-66
2023/10/15 01:43:53;;;;;;;0.57;0.53;;;7.80;99.90;7.70;100408.00;;;;5004652;27;92939;-66
2023/10/15 01:46:44;;;;;;;1.20;0.60;;;7.80;99.90;7.70;100411.00;;;;5000876;27;95016;-66
2023/10/15 01:49:15;;;;;;;1.90;0.60;;;7.80;99.90;7.70;100419.00;;;;5002355;27;93258;-66
2023/10/15 01:51:40;;;;;;;1.37;0.60;;;7.80;99.90;7.70;100401.00;;;;4990608;27;93949;-67
2023/10/15 01:54:09;;;;;;;1.20;0.30;;;7.80;99.90;7.70;100405.00;;;;4992047;27;111392;-68
2023/10/15 01:56:37;;;;;;;1.17;0.87;;;7.80;99.90;7.70;100403.00;;;;5002607;27;93004;-66
2023/10/15 01:59:08;;;;;;;0.70;0.60;;;7.80;99.90;7.70;100406.00;;;;5005752;27;100448;-67
2023/10/15 02:01:40;;;;;;;0.93;0.93;;;7.80;99.90;7.60;100399.00;;;;5006418;27;92868;-67
2023/10/15 02:04:15;;;;;;;0.77;0.77;;;7.80;99.90;7.60;100400.00;;;;4994523;27;92359;-66
2023/10/15 02:06:43;;;;;;;1.50;0.53;;;8.00;99.90;7.60;100404.00;;;;5007880;27;94362;-67
2023/10/15 02:09:12;;;;;;;1.63;1.07;;;7.70;99.90;7.60;100392.00;;;;5003661;27;93676;-66
2023/10/15 02:11:47;;;;;;;0.50;0.50;;;7.70;99.90;7.60;100398.00;;;;5006679;27;93812;-66
2023/10/15 02:14:20;;;;;;;1.53;0.90;;;7.70;99.90;7.60;100396.00;;;;5007321;27;92900;-67
2023/10/15 02:16:49;;;;;;;0.67;0.60;;;7.70;99.90;7.60;100389.00;;;;5002372;27;93679;-66
2023/10/15 02:19:28;;;;;;;1.13;0.60;;;7.70;99.90;7.50;100394.00;;;;4992593;27;94200;-66
2023/10/15 02:21:54;;;;;;;1.43;0.77;;;7.70;99.90;7.50;100382.00;;;;5006971;27;93066;-66
2023/10/15 02:24:20;;;;;;;0.77;0.50;;;7.60;99.90;7.50;100381.00;;;;5003848;27;92633;-68
2023/10/15 02:26:45;;;;;;;1.50;0.90;;;7.60;99.90;7.40;100381.00;;;;5005234;27;122172;-68
2023/10/15 02:29:28;;;;;;;1.07;0.77;;;7.60;99.90;7.40;100388.00;;;;5001581;27;122938;-67
2023/10/15 02:31:54;;;;;;;1.73;0.53;;;7.60;99.90;7.40;100386.00;;;;5004729;27;92750;-67
2023/10/15 02:34:27;;;;;;;0.73;0.70;;;7.60;99.90;7.40;100391.00;;;;5007387;27;93070;-68
2023/10/15 02:36:54;;;;;;;4.63;0.90;;;7.50;99.90;7.40;100391.00;;;;5005173;27;94867;-69
2023/10/15 02:39:22;;;;;;;3.07;1.10;;;7.50;99.90;7.40;100382.00;;;;5008830;27;94603;-67
2023/10/15 02:41:48;;;;;;;0.60;0.60;;;7.80;99.90;7.40;100398.00;;;;5005937;27;92721;-68
2023/10/15 02:44:14;;;;;;;1.87;1.03;;;7.50;99.90;7.40;100405.00;;;;4988979;27;92933;-66
2023/10/15 02:46:47;;;;;;;1.27;0.70;;;7.50;99.90;7.40;100404.00;;;;4987950;27;93810;-67
2023/10/15 02:49:15;;;;;;;0.90;0.70;;;7.50;99.90;7.30;100408.00;;;;5006858;27;93324;-67
2023/10/15 02:51:43;;;;;;;3.87;1.47;;;7.50;99.90;7.30;100404.00;;;;5007148;27;93691;-66
2023/10/15 02:56:56;;;;;;;0.73;0.73;;;7.40;99.90;7.30;100408.00;;;;5007396;27;92926;-67
2023/10/15 02:59:23;;;;;;;2.53;0.87;;;7.40;99.90;7.30;100409.00;;;;5004645;27;93774;-65
2023/10/15 03:01:54;;;;;;;3.70;1.10;;;7.80;99.90;7.20;100407.00;;;;5010157;27;93851;-68
2023/10/15 03:04:32;;;;;;;1.50;0.70;;;7.40;99.90;7.20;100418.00;;;;5003868;27;92862;-68
2023/10/15 03:07:34;;;;;;;2.80;0.93;;;7.30;99.90;7.20;100424.00;;;;5007089;27;93106;-68
2023/10/15 03:09:56;;;;;;;1.10;0.80;;;7.30;99.90;7.20;100419.00;;;;5001352;27;92997;-68
2023/10/15 03:12:23;;;;;;;2.33;1.10;;;7.30;99.90;7.10;100418.00;;;;5005716;27;94149;-67
2023/10/15 03:14:49;;;;;;;2.10;0.97;;;7.30;99.90;7.10;100416.00;;;;5006150;27;96801;-67
2023/10/15 03:17:24;;;;;;;1.80;0.77;;;7.30;99.90;7.10;100415.00;;;;5012000;27;93133;-68
2023/10/15 03:19:54;;;;;;;1.53;0.70;;;7.50;99.90;7.10;100413.00;;;;5006950;27;92428;-70
2023/10/15 03:22:23;;;;;;;2.30;0.93;;;7.40;99.90;7.10;100420.00;;;;5009247;27;92883;-68
2023/10/15 03:24:53;;;;;;;2.83;1.47;;;7.50;99.90;7.10;100425.00;;;;5004882;27;93141;-66
2023/10/15 03:27:26;;;;;;;0.87;0.63;;;7.20;99.90;7.10;100418.00;;;;5002859;27;95019;-67
2023/10/15 03:29:56;;;;;;;1.80;0.80;;;7.20;99.90;7.10;100413.00;;;;4989917;27;93464;-66
2023/10/15 03:32:37;;;;;;;0.70;0.70;;;7.20;99.90;7.10;100422.00;;;;4987991;27;93363;-66
2023/10/15 03:35:08;;;;;;;1.73;0.90;;;7.20;99.90;7.10;100420.00;;;;4991651;27;93214;-68
2023/10/15 03:37:45;;;;;;;0.70;0.53;;;7.20;99.90;7.10;100424.00;;;;4989430;27;92733;-68
2023/10/15 03:40:31;;;;;;;2.20;0.87;;;8.20;99.90;7.10;100411.00;;;;5004978;27;93365;-66
2023/10/15 03:43:06;;;;;;;1.20;0.83;;;7.20;99.90;7.10;100426.00;;;;4980414;27;93208;-66
2023/10/15 03:45:51;;;;;;;0.63;0.40;;;7.20;99.90;7.10;100413.00;;;;5005614;27;91950;-67
2023/10/15 03:48:47;;;;;;;2.63;1.33;;;7.20;99.90;7.00;100416.00;;;;5000758;27;92609;-68
2023/10/15 03:51:20;;;;;;;1.70;0.90;;;7.40;99.90;7.00;100416.00;;;;5004273;27;93308;-67
2023/10/15 03:53:52;;;;;;;1.23;0.67;;;7.20;99.90;7.00;100419.00;;;;5005280;27;93878;-66
2023/10/15 03:56:19;;;;;;;0.43;0.43;;;7.10;99.90;7.00;100414.00;;;;5005479;27;92850;-66
2023/10/15 03:58:45;;;;;;;3.40;0.90;;;7.10;99.90;7.00;100420.00;;;;5004784;27;93797;-66
2023/10/15 04:01:16;;;;;;;2.57;1.10;;;7.10;99.90;7.00;100416.00;;;;4987844;27;109932;-65
2023/10/15 04:03:47;;;;;;;1.93;1.63;;;7.20;99.90;7.00;100409.00;;;;5004359;27;93017;-66
2023/10/15 04:06:14;;;;;;;2.63;1.07;;;7.10;99.90;7.00;100410.00;;;;5004329;27;92952;-67
2023/10/15 04:08:59;;;;;;;2.60;0.90;;;7.10;99.90;6.90;100414.00;;;;5006700;27;92830;-66
2023/10/15 04:11:31;;;;;;;1.03;0.93;;;7.10;99.90;6.90;100406.00;;;;4985505;27;94294;-66
2023/10/15 04:14:28;;;;;;;1.80;0.97;;;6.90;99.90;6.90;100407.00;;;;4972764;27;93712;-66
2023/10/15 04:16:54;;;;;;;0.50;0.50;;;7.40;99.90;6.80;100410.00;;;;4989657;27;93047;-65
2023/10/15 04:19:25;;;;;;;1.27;0.93;;;7.00;99.90;6.80;100406.00;;;;5005763;27;94094;-67
2023/10/15 04:21:52;;;;;;;0.80;0.80;;;6.90;99.90;6.80;100411.00;;;;5004095;27;93304;-67
2023/10/15 04:24:36;;;;;;;1.50;0.80;;;6.90;99.90;6.80;100399.00;;;;4974127;27;94806;-65
2023/10/15 04:27:06;;;;;;;3.27;0.90;;;6.90;99.90;6.80;100399.00;;;;5002745;27;93042;-66
2023/10/15 04:29:34;;;;;;;2.63;1.43;;;7.30;99.90;6.80;100403.00;;;;5006033;27;93312;-67
2023/10/15 04:32:09;;;;;;;2.87;0.70;;;6.90;99.90;6.80;100407.00;;;;4991581;27;92855;-65
2023/10/15 04:34:36;;;;;;;0.77;0.77;;;6.90;99.90;6.80;100400.00;;;;5007391;27;92864;-67
2023/10/15 04:37:16;;;;;;;0.70;0.57;;;6.90;99.90;6.80;100391.00;;;;4987449;27;92162;-66
2023/10/15 04:39:52;;;;;;;2.00;0.80;;;6.90;99.90;6.80;100404.00;;;;4991432;27;95694;-66
2023/10/15 04:42:24;;;;;;;0.73;0.70;;;6.90;99.90;6.80;100406.00;;;;4986185;27;93126;-65
2023/10/15 04:44:50;;;;;;;1.27;0.57;;;7.10;99.90;6.80;100402.00;;;;5003680;27;93911;-66
2023/10/15 04:47:27;;;;;;;1.23;0.60;;;7.30;99.90;6.80;100409.00;;;;5005083;27;92799;-67
2023/10/15 04:49:57;;;;;;;9.37;1.87;;;6.90;99.90;6.80;100398.00;;;;5006313;27;93821;-65
2023/10/15 04:52:25;;;;;;;2.77;0.87;;;6.90;99.90;6.80;100404.00;;;;4983800;27;93313;-67
2023/10/15 04:54:55;;;;;;;2.13;1.00;;;6.90;99.90;6.80;100406.00;;;;4989054;27;93274;-66
2023/10/15 04:57:23;;;;;;;2.50;1.27;;;7.20;99.90;6.80;100405.00;;;;5003843;27;92922;-65
2023/10/15 04:59:49;;;;;;;1.27;0.90;;;6.90;99.90;6.70;100402.00;;;;5005688;27;92871;-67
2023/10/15 05:02:14;;;;;;;0.73;0.50;;;7.00;99.90;6.70;100403.00;;;;5002839;27;92263;-66
2023/10/15 05:04:40;;;;;;;0.50;0.50;;;6.90;99.90;6.70;100408.00;;;;5005319;27;110503;-65
2023/10/15 05:07:06;;;;;;;0.87;0.63;;;6.80;99.90;6.70;100407.00;;;;5005730;27;93415;-65
2023/10/15 05:09:33;;;;;;;2.07;1.27;;;6.80;99.90;6.70;100407.00;;;;5004795;27;121322;-66
2023/10/15 05:11:58;;;;;;;0.60;0.43;;;6.80;99.90;6.70;100418.00;;;;5004901;27;94790;-66
2023/10/15 05:14:24;;;;;;;1.90;1.03;;;6.80;99.90;6.70;100414.00;;;;4994918;27;93065;-67
2023/10/15 05:16:49;;;;;;;3.80;1.27;;;6.80;99.90;6.70;100410.00;;;;4984744;27;92987;-66
2023/10/15 05:19:19;;;;;;;2.33;1.33;;;7.20;99.90;6.60;100418.00;;;;5004214;27;121333;-65
2023/10/15 05:21:46;;;;;;;1.77;1.20;;;7.90;99.90;6.60;100413.00;;;;4984655;27;93596;-66
2023/10/15 05:24:18;;;;;;;0.93;0.80;;;6.70;99.90;6.50;100414.00;;;;5004856;27;92949;-67
2023/10/15 05:26:48;;;;;;;3.63;1.10;;;6.70;99.90;6.50;100414.00;;;;5006585;27;92292;-66
2023/10/15 05:29:17;;;;;;;1.17;1.07;;;6.70;99.90;6.50;100413.00;;;;5002093;27;112652;-67
2023/10/15 05:31:43;;;;;;;1.17;0.60;;;7.00;99.90;6.50;100417.00;;;;5001396;27;122773;-67
2023/10/15 05:34:09;;;;;;;2.67;0.73;;;6.60;99.90;6.40;100409.00;;;;4987608;27;107741;-65
2023/10/15 05:36:35;;;;;;;0.70;0.50;;;6.60;99.90;6.40;100410.00;;;;5006477;27;92657;-66
2023/10/15 05:39:07;;;;;;;1.90;1.20;;;6.60;99.90;6.40;100420.00;;;;5005832;27;94004;-69
2023/10/15 05:41:34;;;;;;;2.43;0.80;;;6.50;99.90;6.40;100416.00;;;;5004198;27;92787;-66
2023/10/15 05:44:00;;;;;;;2.43;0.83;;;6.50;99.90;6.40;100418.00;;;;4992164;27;93366;-66
2023/10/15 05:46:27;;;;;;;1.60;1.07;;;6.60;99.90;6.40;100407.00;;;;4974816;27;92537;-67
2023/10/15 05:48:54;;;;;;;5.63;0.87;;;6.50;99.90;6.50;100422.00;;;;5001087;27;93717;-67
2023/10/15 05:51:20;;;;;;;1.27;0.73;;;6.60;99.90;6.50;100419.00;;;;5003124;27;93857;-66
2023/10/15 05:53:47;;;;;;;4.23;1.50;;;6.60;99.90;6.50;100421.00;;;;5003922;27;92889;-66
2023/10/15 05:56:13;;;;;;;0.77;0.77;;;6.70;99.90;6.60;100438.00;;;;4986997;27;93399;-68
2023/10/15 05:58:42;;;;;;;1.73;1.03;;;6.70;99.90;6.60;100425.00;;;;4999385;27;95251;-66
2023/10/15 06:01:07;;;;;;;5.13;0.83;;;6.70;99.90;6.60;100431.00;;;;5000977;27;93169;-67
2023/10/15 06:03:34;;;;;;;2.13;1.30;;;7.10;99.90;6.70;100440.00;;;;5000798;27;110460;-66
2023/10/15 06:06:02;;;;;;;2.03;0.77;;;6.80;99.90;6.80;100435.00;;;;4986686;27;94219;-65
2023/10/15 06:08:28;;;;;;;0.50;0.47;;;6.80;99.90;6.90;100448.00;;;;4999245;27;94851;-66
2023/10/15 06:10:54;;;;;;;0.73;0.47;;;6.90;99.90;7.00;100445.00;;;;5003657;27;92672;-66
2023/10/15 06:13:19;;;;;;;1.07;0.63;;;7.00;99.90;7.00;100440.00;;;;4998874;27;110251;-67
2023/10/15 06:15:45;;;;;;;1.70;0.80;;;7.10;99.90;7.10;100443.00;;;;5001743;27;108297;-65
2023/10/15 06:18:11;;;;;;;3.83;0.87;;;7.20;99.90;7.20;100443.00;;;;4983931;27;93567;-66
2023/10/15 06:20:37;;;;;;;1.27;1.17;;;7.30;99.90;7.30;100440.00;;;;4998934;27;111341;-66
2023/10/15 06:23:07;;;;;;;0.73;0.67;;;7.90;99.90;7.40;100439.00;;;;5000873;27;110036;-66
2023/10/15 06:25:35;;;;;;;4.77;0.53;;;7.50;99.90;7.60;100441.00;;;;4999626;27;92787;-66
2023/10/15 06:28:01;;;;;;;6.27;1.67;;;7.70;99.90;7.80;100442.00;;;;4997103;27;94685;-66
2023/10/15 06:30:27;;;;;;;4.43;1.07;;;7.80;99.90;8.00;100456.00;;;;4998220;27;92551;-67
2023/10/15 06:32:53;;;;;;;4.00;0.53;;;8.00;99.90;8.10;100456.00;;;;4998096;27;111799;-67
2023/10/15 06:35:22;;;;;;;1.77;1.07;;;8.10;99.90;8.20;100468.00;;;;5001846;27;109143;-66
2023/10/15 06:38:00;;;;;;;1.10;0.87;;;8.30;99.90;8.30;100458.00;;;;5003914;27;94023;-65
2023/10/15 06:40:28;;;;;;;0.60;0.60;;;8.40;99.90;8.30;100474.00;;;;4988985;27;92322;-67
2023/10/15 06:43:00;;;;;;;0.73;0.73;;;8.40;99.90;8.40;100461.00;;;;5004298;27;93011;-67
2023/10/15 06:45:27;;;;;;;1.20;1.07;;;8.40;99.90;8.40;100477.00;;;;5002588;27;92713;-66
2023/10/15 06:47:53;;;;;;;3.73;1.20;;;8.50;99.90;8.40;100476.00;;;;5002057;27;94322;-65
2023/10/15 06:50:20;;;;;;;2.30;0.87;;;8.50;99.90;8.40;100479.00;;;;5000693;27;94116;-65
2023/10/15 06:52:46;;;;;;;1.60;0.80;;;8.50;99.90;8.40;100469.00;;;;5003650;27;93427;-65
2023/10/15 06:55:13;;;;;;;1.40;0.63;;;8.50;99.90;8.50;100473.00;;;;4986792;27;93889;-66
2023/10/15 06:57:40;;;;;;;4.23;1.17;;;8.50;99.90;8.50;100472.00;;;;5003684;27;93201;-65
2023/10/15 07:00:08;;;;;;;2.13;1.40;;;9.00;99.90;8.50;100475.00;;;;5005072;27;93581;-68
2023/10/15 07:02:34;;;;;;;2.33;1.23;;;8.60;99.90;8.50;100479.00;;;;5003815;27;92819;-68
2023/10/15 07:05:02;;;;;;;2.97;1.40;;;8.60;99.90;8.60;100485.00;;;;5002391;27;108305;-66
2023/10/15 07:07:29;;;;;;;7.20;0.87;;;8.60;99.90;8.60;100476.00;;;;5001139;27;93178;-67
2023/10/15 07:09:54;;;;;;;1.30;0.43;;;9.10;99.90;8.60;100487.00;;;;5001700;27;94319;-66
2023/10/15 07:12:20;;;;;;;9.33;0.83;;;8.70;99.90;8.70;100486.00;;;;5000110;27;109933;-68
2023/10/15 07:14:50;;;;;;;15.57;1.13;;;8.70;99.90;8.70;100490.00;;;;4987007;27;108636;-68
2023/10/15 07:17:17;;;;;;;1.93;0.80;;;8.70;99.90;8.70;100486.00;;;;5002191;27;122975;-66
2023/10/15 07:19:44;;;;;;;1.69;0.83;;;9.10;99.90;8.70;100492.00;;;;4146768;27;10001872;-68
2023/10/15 07:22:10;;;;;;;2.80;0.80;;;8.80;99.90;8.80;100487.00;;;;4999996;27;93035;-66
2023/10/15 07:24:35;;;;;;;3.53;1.00;;;8.80;99.90;8.80;100490.00;;;;5006066;27;94896;-66
2023/10/15 07:27:01;;;;;;;0.73;0.63;;;8.90;99.90;8.80;100502.00;;;;4999028;27;93104;-67
2023/10/15 07:29:30;;;;;;;1.70;1.23;;;8.90;99.90;8.80;100502.00;;;;5002795;27;92157;-67
2023/10/15 07:31:56;;;;;;;1.67;1.00;;;8.80;99.90;8.80;100492.00;;;;5001055;27;93097;-67
2023/10/15 07:34:26;;;;;;;5.60;1.13;;;8.90;99.90;8.80;100490.00;;;;5001369;27;109563;-67
2023/10/15 07:36:56;;;;;;;1.00;0.83;;;8.90;99.90;9.00;100503.00;;;;5004636;27;93652;-67
2023/10/15 07:39:27;;;;;;;5.17;0.93;;;9.00;99.90;9.20;100499.00;;;;5000396;27;94341;-67
2023/10/15 07:41:53;;;;;;;2.23;0.80;;;9.20;99.90;9.30;100493.00;;;;5003638;27;120371;-65
2023/10/15 07:44:19;;;;;;;1.63;0.87;;;9.30;99.90;9.40;100481.00;;;;4999273;27;106184;-66
2023/10/15 07:46:45;;;;;;;4.37;1.00;;;9.40;99.90;9.50;100493.00;;;;5001201;27;109099;-67
2023/10/15 07:49:18;;;;;;;8.57;1.37;;;9.50;99.90;9.50;100486.00;;;;5000131;27;93060;-66
2023/10/15 07:51:43;;;;;;;1.33;0.70;;;9.50;99.90;9.50;100488.00;;;;4988727;27;93049;-65
2023/10/15 07:54:09;;;;;;;0.87;0.77;;;9.50;99.90;9.50;100491.00;;;;5001148;27;110691;-66
2023/10/15 07:56:35;;;;;;;1.93;0.67;;;9.60;99.90;9.60;100496.00;;;;5002916;27;108327;-70
2023/10/15 07:59:08;;;;;;;1.83;1.47;;;9.60;99.90;9.60;100500.00;;;;5000999;27;94090;-66
2023/10/15 08:01:36;;;;;;;8.27;1.30;;;9.60;99.90;9.60;100506.00;;;;4983353;27;94133;-69
2023/10/15 08:04:04;;;;;;;3.97;1.13;;;9.60;99.90;9.60;100499.00;;;;4969870;27;92858;-66
2023/10/15 08:06:30;;;;;;;2.33;1.33;;;9.70;99.90;9.60;100504.00;;;;4985390;27;92862;-69
2023/10/15 08:08:55;;;;;;;2.20;0.63;;;9.60;99.90;9.60;100497.00;;;;5001031;27;122892;-66
2023/10/15 08:11:21;;;;;;;1.47;1.00;;;9.60;99.90;9.70;100508.00;;;;5002153;27;113431;-68
2023/10/15 08:13:46;;;;;;;2.20;1.17;;;9.70;99.90;9.70;100497.00;;;;4999941;27;109123;-66
2023/10/15 08:16:12;;;;;;;0.93;0.87;;;9.70;99.90;9.70;100506.00;;;;4999715;27;92849;-68
2023/10/15 08:18:38;;;;;;;4.00;1.00;;;9.70;99.90;9.60;100513.00;;;;5003044;27;122505;-67
2023/10/15 08:21:03;;;;;;;0.47;0.47;;;9.60;99.90;9.60;100507.00;;;;5001753;27;92647;-69
2023/10/15 08:23:29;;;;;;;1.07;0.80;;;9.70;99.90;9.60;100505.00;;;;4997871;27;111048;-67
2023/10/15 08:25:55;;;;;;;4.90;1.07;;;9.70;99.90;9.60;100520.00;;;;4980473;27;107758;-67
2023/10/15 08:28:21;;;;;;;1.70;0.80;;;9.60;99.90;9.60;100514.00;;;;4996403;27;120863;-68
2023/10/15 08:30:46;;;;;;;2.77;0.97;;;9.80;99.90;9.50;100514.00;;;;5001593;27;93072;-67
2023/10/15 08:33:12;;;;;;;3.60;1.30;;;9.60;99.90;9.50;100519.00;;;;4981397;27;94418;-67
2023/10/15 08:35:40;;;;;;;1.60;1.00;;;9.50;99.90;9.40;100509.00;;;;5000684;27;92899;-68
2023/10/15 08:38:07;;;;;;;1.90;0.87;;;9.50;99.90;9.40;100505.00;;;;4998509;27;94365;-67
2023/10/15 08:40:39;;;;;;;4.83;1.53;;;9.50;99.90;9.30;100516.00;;;;4999842;27;93648;-67
2023/10/15 08:43:13;;;;;;;2.27;1.10;;;9.40;99.90;9.30;100514.00;;;;4971288;27;91859;-67
2023/10/15 08:45:42;;;;;;;0.80;0.73;;;9.40;99.90;9.30;100512.00;;;;4996768;27;93259;-66
2023/10/15 08:48:11;;;;;;;1.30;0.97;;;9.30;99.90;9.30;100523.00;;;;4978974;27;93172;-67
2023/10/15 08:50:38;;;;;;;0.70;0.57;;;9.40;99.90;9.30;100521.00;;;;4988260;27;93926;-65
2023/10/15 08:53:07;;;;;;;1.20;0.83;;;9.30;99.90;9.30;100516.00;;;;4997446;27;93038;-68
2023/10/15 08:55:33;;;;;;;1.10;1.00;;;9.30;99.90;9.20;100525.00;;;;4979654;27;92949;-67
2023/10/15 08:58:00;;;;;;;2.10;1.50;;;9.30;99.90;9.20;100520.00;;;;5001166;27;102063;-68
2023/10/15 09:00:26;;;;;;;3.87;1.50;;;9.30;99.90;9.20;100533.00;;;;4999119;27;122657;-68
2023/10/15 09:02:56;;;;;;;2.43;0.73;;;9.30;99.90;9.20;100533.00;;;;5004193;27;93084;-67
2023/10/15 09:05:23;;;;;;;7.30;1.60;;;9.20;99.90;9.10;100533.00;;;;4980195;27;93790;-67
2023/10/15 09:07:56;;;;;;;2.90;1.50;;;9.20;99.90;9.00;100531.00;;;;4986791;27;93187;-67
2023/10/15 09:10:23;;;;;;;3.53;1.17;;;9.20;99.90;8.90;100522.00;;;;4998753;27;93548;-69
2023/10/15 09:12:50;;;;;;;2.17;1.37;;;9.00;99.90;8.80;100516.00;;;;4981838;27;93232;-69
2023/10/15 09:15:16;;;;;;;0.70;0.60;;;8.90;99.90;8.70;100518.00;;;;4995125;27;95038;-68
2023/10/15 09:17:59;;;;;;;2.27;0.90;;;8.80;99.90;8.60;100531.00;;;;4989704;27;94110;-68
2023/10/15 09:20:27;;;;;;;1.87;1.20;;;8.70;99.90;8.60;100527.00;;;;4984611;27;92777;-70
2023/10/15 09:22:58;;;;;;;3.57;1.00;;;8.70;99.90;8.70;100525.00;;;;5002281;27;93898;-69
2023/10/15 09:25:26;;;;;;;1.13;1.03;;;8.70;99.90;8.70;100522.00;;;;4986535;27;92952;-71
2023/10/15 09:27:56;;;;;;;4.83;1.47;;;8.80;99.90;8.90;100529.00;;;;4985404;27;92912;-69
2023/10/15 09:30:26;;;;;;;3.13;1.33;;;8.90;99.90;9.00;100528.00;;;;4999335;27;99598;-67
2023/10/15 09:32:52;;;;;;;5.00;1.40;;;9.10;99.90;9.20;100533.00;;;;5000193;27;92658;-69
2023/10/15 09:35:20;;;;;;;1.07;0.90;;;9.80;99.90;9.30;100533.00;;;;5002640;27;92527;-68
2023/10/15 09:37:46;;;;;;;2.47;0.80;;;9.30;99.90;9.50;100538.00;;;;5003187;27;94718;-69
2023/10/15 09:40:23;;;;;;;1.77;1.17;;;9.50;99.90;9.80;100524.00;;;;4999988;27;94101;-70
2023/10/15 09:42:54;;;;;;;2.40;1.40;;;9.90;99.90;10.20;100538.00;;;;5000672;27;92815;-68
2023/10/15 09:45:24;;;;;;;1.07;0.97;;;10.00;99.90;10.50;100520.00;;;;4957195;27;95835;-69
2023/10/15 09:47:54;;;;;;;1.57;1.30;;;10.40;99.90;10.70;100533.00;;;;5003856;27;93206;-68
2023/10/15 09:50:24;;;;;;;1.53;0.80;;;10.60;99.90;10.80;100535.00;;;;5000042;27;93001;-67
2023/10/15 09:53:01;;;;;;;1.27;1.10;;;10.80;99.90;10.90;100536.00;;;;5005383;27;92560;-67
2023/10/15 09:55:33;;;;;;;6.90;1.23;;;10.80;99.90;10.80;100534.00;;;;4982735;27;92585;-67
2023/10/15 09:58:04;;;;;;;1.20;1.10;;;10.90;99.90;10.70;100533.00;;;;5005688;27;92305;-67
2023/10/15 10:03:49;;;;;;;3.00;1.00;;;10.60;99.80;10.40;100532.00;;;;4965682;27;93016;-67
2023/10/15 10:06:51;;;;;;;4.07;1.73;;;10.50;99.60;10.30;100536.00;;;;5002875;27;93791;-68
2023/10/15 10:09:38;;;;;;;1.07;0.67;;;10.40;99.70;10.30;100527.00;;;;4980308;27;94598;-67
2023/10/15 10:12:43;;;;;;;1.60;0.93;;;10.40;99.60;10.40;100526.00;;;;4980053;27;94522;-68
2023/10/15 10:15:49;;;;;;;2.37;1.77;;;10.40;99.70;10.50;100541.00;;;;5005022;27;93292;-67
2023/10/15 10:18:15;;;;;;;1.33;0.87;;;10.50;99.40;10.70;100552.00;;;;4992670;27;92939;-66
2023/10/15 10:20:48;;;;;;;4.30;1.10;;;10.70;99.20;11.10;100537.00;;;;4985218;27;122398;-68
2023/10/15 10:23:14;;;;;;;2.40;1.00;;;10.90;99.20;11.40;100538.00;;;;4989824;27;92943;-65
2023/10/15 10:25:45;;;;;;;0.80;0.80;;;11.30;98.60;11.70;100534.00;;;;5006359;27;92237;-68
2023/10/15 10:28:22;;;;;;;1.23;1.07;;;11.60;97.30;11.80;100545.00;;;;4989655;27;92922;-67
2023/10/15 10:31:00;;;;;;;0.97;0.70;;;11.70;96.80;11.80;100547.00;;;;5002655;27;94578;-66
2023/10/15 10:33:49;;;;;;;1.13;0.80;;;11.80;95.90;11.90;100536.00;;;;5000294;27;94048;-67
2023/10/15 10:36:27;;;;;;;2.87;1.13;;;11.90;95.70;11.90;100530.00;;;;4997493;27;92801;-67
2023/10/15 10:39:00;;;;;;;3.27;0.93;;;11.90;95.20;11.90;100529.00;;;;5006289;27;92683;-67
2023/10/15 10:41:50;;;;;;;3.97;0.93;;;11.90;95.10;11.90;100520.00;;;;4970793;27;93949;-67
2023/10/15 10:44:21;;;;;;;0.70;0.70;;;11.90;94.90;11.90;100527.00;;;;4985278;27;93011;-67
2023/10/15 10:46:47;;;;;;;2.67;0.70;;;11.90;94.60;12.00;100519.00;;;;5004224;27;108376;-67
2023/10/15 10:49:13;;;;;;;1.20;0.80;;;12.00;94.70;12.10;100511.00;;;;5000051;27;108399;-67
2023/10/15 10:52:17;;;;;;;4.33;0.67;;;12.10;94.60;12.30;100511.00;;;;4981721;27;109947;-69
2023/10/15 10:54:45;;;;;;;0.53;0.40;;;12.20;94.80;12.40;100518.00;;;;5002540;27;93162;-67
2023/10/15 10:57:11;;;;;;;6.33;1.27;;;12.30;94.30;12.40;100513.00;;;;4998571;27;92716;-66
2023/10/15 10:59:43;;;;;;;2.40;0.80;;;12.30;93.70;12.20;100516.00;;;;4983739;27;95774;-67
2023/10/15 11:02:13;;;;;;;1.10;0.87;;;12.30;93.80;11.90;100510.00;;;;4982709;27;93130;-67
2023/10/15 11:04:40;;;;;;;1.13;0.93;;;12.10;94.20;11.60;100514.00;;;;5002028;27;93759;-66
2023/10/15 11:07:07;;;;;;;1.13;0.80;;;11.80;94.70;11.30;100522.00;;;;5001329;27;93003;-67
2023/10/15 11:09:37;;;;;;;3.30;1.07;;;11.60;95.00;11.10;100521.00;;;;5004629;27;93219;-68
2023/10/15 11:12:04;;;;;;;0.70;0.60;;;11.30;95.30;11.00;100531.00;;;;4979222;27;94217;-68
2023/10/15 11:14:29;;;;;;;1.70;0.60;;;11.10;95.80;10.80;100540.00;;;;4973227;27;94625;-68
2023/10/15 11:16:56;;;;;;;0.63;0.37;;;11.50;96.90;10.30;100544.00;;;;5001841;27;109333;-66
2023/10/15 11:19:30;;;;;;;0.80;0.70;;;10.70;98.10;9.70;100532.00;;;;5000433;27;92927;-64